createdAt,value
2023-05-14T00:02:07.281Z,6.07
2023-05-14T00:04:34.070Z,5.95
2023-05-14T00:07:00.982Z,5.43
2023-05-14T00:09:30.512Z,5.45
2023-05-14T00:11:57.280Z,6.65
2023-05-14T00:14:24.188Z,6.63
2023-05-14T00:16:50.967Z,5.03
2023-05-14T00:19:18.308Z,5.90
2023-05-14T00:21:45.379Z,6.05
2023-05-14T00:24:14.828Z,4.00
2023-05-14T00:26:41.568Z,4.03
2023-05-14T00:29:08.269Z,5.63
2023-05-14T00:31:34.972Z,6.13
2023-05-14T00:34:01.712Z,6.03
2023-05-14T00:36:28.413Z,5.90
2023-05-14T00:38:55.140Z,6.80
2023-05-14T00:41:23.176Z,7.10
2023-05-14T00:43:49.952Z,4.75
2023-05-14T00:46:16.749Z,3.92
2023-05-14T00:48:44.783Z,5.05
2023-05-14T00:51:11.843Z,5.47
2023-05-14T00:53:38.612Z,6.72
2023-05-14T00:56:06.112Z,4.93
2023-05-14T00:58:36.760Z,4.55
2023-05-14T01:01:03.894Z,5.93
2023-05-14T01:03:32.060Z,4.27
2023-05-14T01:06:15.563Z,4.80
2023-05-14T01:08:59.682Z,5.22
2023-05-14T01:11:32.134Z,6.43
2023-05-14T01:14:01.860Z,5.40
2023-05-14T01:16:31.443Z,5.00
2023-05-14T01:19:00.887Z,6.40
2023-05-14T01:21:35.317Z,5.70
2023-05-14T01:24:02.130Z,5.18
2023-05-14T01:26:31.448Z,5.97
2023-05-14T01:29:19.940Z,5.47
2023-05-14T01:31:49.054Z,3.80
2023-05-14T01:34:21.331Z,3.35
2023-05-14T01:36:49.965Z,4.88
2023-05-14T01:39:17.786Z,3.38
2023-05-14T01:41:46.363Z,6.80
2023-05-14T01:44:13.380Z,3.00
2023-05-14T01:46:40.321Z,4.93
2023-05-14T01:49:07.121Z,2.85
2023-05-14T01:51:34.049Z,4.50
2023-05-14T01:54:00.884Z,5.03
2023-05-14T01:56:27.609Z,6.30
2023-05-14T01:58:55.645Z,3.20
2023-05-14T02:01:22.935Z,3.20
2023-05-14T02:03:51.994Z,4.05
2023-05-14T02:06:18.812Z,4.10
2023-05-14T02:08:45.609Z,3.20
2023-05-14T02:11:12.312Z,3.40
2023-05-14T02:13:39.052Z,4.57
2023-05-14T02:16:06.397Z,3.45
2023-05-14T02:18:33.233Z,5.17
2023-05-14T02:21:00.034Z,4.80
2023-05-14T02:23:37.915Z,3.83
2023-05-14T02:26:09.839Z,5.28
2023-05-14T02:28:36.676Z,4.03
2023-05-14T02:31:03.605Z,4.83
2023-05-14T02:33:32.844Z,2.80
2023-05-14T02:35:59.660Z,4.55
2023-05-14T02:38:26.597Z,5.35
2023-05-14T02:40:53.385Z,4.53
2023-05-14T02:43:20.135Z,5.13
2023-05-14T02:45:49.572Z,6.20
2023-05-14T02:48:16.282Z,4.03
2023-05-14T02:50:42.965Z,5.30
2023-05-14T02:53:09.699Z,4.25
2023-05-14T02:55:37.919Z,3.93
2023-05-14T02:58:05.811Z,6.47
2023-05-14T03:00:32.588Z,5.43
2023-05-14T03:02:59.868Z,5.40
2023-05-14T03:05:26.944Z,3.63
2023-05-14T03:07:53.762Z,8.03
2023-05-14T03:10:21.014Z,4.47
2023-05-14T03:12:47.962Z,4.20
2023-05-14T03:15:14.684Z,4.20
2023-05-14T03:17:44.226Z,3.58
2023-05-14T03:20:12.445Z,4.17
2023-05-14T03:22:39.154Z,3.22
2023-05-14T03:25:09.375Z,5.63
2023-05-14T03:27:36.056Z,5.30
2023-05-14T03:30:02.839Z,4.25
2023-05-14T03:32:30.295Z,6.33
2023-05-14T03:34:57.222Z,5.40
2023-05-14T03:37:25.096Z,5.28
2023-05-14T03:39:51.832Z,5.13
2023-05-14T03:42:18.605Z,5.95
2023-05-14T03:44:45.637Z,4.87
2023-05-14T03:47:12.445Z,5.93
2023-05-14T03:49:39.171Z,5.90
2023-05-14T03:52:06.144Z,5.65
2023-05-14T03:54:32.918Z,5.38
2023-05-14T03:56:59.588Z,4.37
2023-05-14T03:59:26.273Z,3.70
2023-05-14T04:01:53.022Z,7.55
2023-05-14T04:04:19.767Z,6.15
2023-05-14T04:06:46.472Z,5.60
2023-05-14T04:09:13.249Z,4.77
2023-05-14T04:11:40.045Z,4.97
2023-05-14T04:14:06.880Z,4.72
2023-05-14T04:16:33.712Z,3.50
2023-05-14T04:19:05.797Z,5.65
2023-05-14T04:21:32.713Z,4.67
2023-05-14T04:23:59.477Z,4.90
2023-05-14T04:26:26.344Z,5.80
2023-05-14T04:28:53.001Z,4.40
2023-05-14T04:31:19.801Z,6.38
2023-05-14T04:33:46.999Z,4.87
2023-05-14T04:36:14.031Z,4.07
2023-05-14T04:38:41.591Z,4.88
2023-05-14T04:41:08.347Z,6.40
2023-05-14T04:43:35.181Z,6.65
2023-05-14T04:46:02.240Z,5.30
2023-05-14T04:48:29.109Z,6.80
2023-05-14T04:50:55.840Z,5.38
2023-05-14T04:53:22.707Z,4.72
2023-05-14T04:55:49.382Z,5.40
2023-05-14T04:58:16.107Z,5.53
2023-05-14T05:00:42.877Z,4.55
2023-05-14T05:03:09.682Z,4.88
2023-05-14T05:05:36.483Z,4.07
2023-05-14T05:08:03.347Z,4.50
2023-05-14T05:10:30.019Z,6.10
2023-05-14T05:12:56.724Z,6.35
2023-05-14T05:15:24.697Z,6.43
2023-05-14T05:17:53.282Z,4.60
2023-05-14T05:20:20.066Z,6.40
2023-05-14T05:22:46.797Z,5.93
2023-05-14T05:25:13.588Z,5.47
2023-05-14T05:27:40.360Z,5.78
2023-05-14T05:30:08.411Z,4.68
2023-05-14T05:32:35.303Z,5.65
2023-05-14T05:35:02.087Z,5.27
2023-05-14T05:37:28.919Z,4.85
2023-05-14T05:39:55.597Z,5.13
2023-05-14T05:42:22.720Z,5.82
2023-05-14T05:44:49.608Z,4.97
2023-05-14T05:47:17.178Z,5.60
2023-05-14T05:49:43.946Z,4.25
2023-05-14T05:52:10.739Z,3.78
2023-05-14T05:54:39.776Z,6.68
2023-05-14T05:57:06.481Z,3.30
2023-05-14T05:59:33.230Z,5.53
2023-05-14T06:02:00.017Z,5.47
2023-05-14T06:04:26.697Z,4.82
2023-05-14T06:06:53.433Z,4.47
2023-05-14T06:09:20.153Z,3.88
2023-05-14T06:11:47.008Z,4.87
2023-05-14T06:14:13.755Z,4.03
2023-05-14T06:16:40.614Z,3.60
2023-05-14T06:19:08.497Z,3.47
2023-05-14T06:21:35.403Z,5.32
2023-05-14T06:24:02.127Z,2.93
2023-05-14T06:26:28.952Z,4.18
2023-05-14T06:28:55.740Z,6.72
2023-05-14T06:31:22.532Z,3.47
2023-05-14T06:33:49.288Z,4.43
2023-05-14T06:36:16.069Z,6.27
2023-05-14T06:38:42.789Z,5.55
2023-05-14T06:41:09.520Z,4.43
2023-05-14T06:43:36.224Z,5.25
2023-05-14T06:46:03.031Z,4.28
2023-05-14T06:48:30.967Z,4.60
2023-05-14T06:50:57.860Z,6.45
2023-05-14T06:53:24.571Z,6.10
2023-05-14T06:55:51.320Z,4.82
2023-05-14T06:58:18.036Z,5.93
2023-05-14T07:00:44.801Z,3.17
2023-05-14T07:03:11.586Z,4.35
2023-05-14T07:05:38.394Z,4.00
2023-05-14T07:08:05.740Z,3.35
2023-05-14T07:10:32.773Z,3.92
2023-05-14T07:12:59.552Z,7.30
2023-05-14T07:15:26.225Z,5.97
2023-05-14T07:17:53.039Z,4.07
2023-05-14T07:20:19.848Z,4.40
2023-05-14T07:22:46.546Z,4.15
2023-05-14T07:25:13.606Z,3.67
2023-05-14T07:27:40.365Z,5.78
2023-05-14T07:30:08.027Z,5.80
2023-05-14T07:32:34.752Z,3.80
2023-05-14T07:35:04.164Z,4.70
2023-05-14T07:37:33.341Z,4.03
2023-05-14T07:40:00.068Z,6.40
2023-05-14T07:42:35.781Z,6.78
2023-05-14T07:45:03.643Z,3.80
2023-05-14T07:47:30.736Z,5.07
2023-05-14T07:49:57.773Z,5.20
2023-05-14T07:52:25.035Z,4.82
2023-05-14T07:54:52.134Z,3.83
2023-05-14T07:57:22.580Z,4.20
2023-05-14T07:59:49.416Z,4.60
2023-05-14T08:02:17.109Z,3.70
2023-05-14T08:04:45.244Z,3.60
2023-05-14T08:07:11.999Z,4.70
2023-05-14T08:09:38.727Z,6.38
2023-05-14T08:12:09.101Z,7.00
2023-05-14T08:14:35.876Z,6.20
2023-05-14T08:17:02.808Z,5.03
2023-05-14T08:19:29.496Z,2.88
2023-05-14T08:21:56.182Z,4.95
2023-05-14T08:24:23.008Z,4.13
2023-05-14T08:26:49.869Z,3.93
2023-05-14T08:29:16.912Z,2.50
2023-05-14T08:31:44.055Z,2.90
2023-05-14T08:34:11.097Z,3.30
2023-05-14T08:36:38.929Z,3.08
2023-05-14T08:39:07.833Z,3.27
2023-05-14T08:41:35.557Z,2.95
2023-05-14T08:44:19.308Z,3.70
2023-05-14T08:46:46.749Z,3.92
2023-05-14T08:49:37.257Z,4.60
2023-05-14T08:52:04.476Z,3.90
2023-05-14T08:54:32.569Z,4.38
2023-05-14T08:56:59.672Z,4.90
2023-05-14T08:59:26.877Z,5.40
2023-05-14T09:01:56.749Z,3.88
2023-05-14T09:04:25.189Z,4.87
2023-05-14T09:06:56.333Z,5.15
2023-05-14T09:09:23.686Z,3.97
2023-05-14T09:11:55.490Z,3.63
2023-05-14T09:14:29.985Z,4.53
2023-05-14T09:16:57.192Z,3.83
2023-05-14T09:19:27.418Z,4.15
2023-05-14T09:21:58.541Z,3.08
2023-05-14T09:24:29.139Z,5.03
2023-05-14T09:26:58.956Z,5.25
2023-05-14T09:29:29.389Z,4.00
2023-05-14T09:31:57.694Z,3.95
2023-05-14T09:34:29.885Z,5.15
2023-05-14T09:37:01.328Z,4.22
2023-05-14T09:39:29.453Z,4.32
2023-05-14T09:41:56.578Z,4.73
2023-05-14T09:44:24.192Z,4.10
2023-05-14T09:46:51.733Z,4.55
2023-05-14T09:49:18.782Z,6.32
2023-05-14T09:51:47.694Z,4.38
2023-05-14T09:54:16.051Z,5.63
2023-05-14T09:56:46.441Z,3.53
2023-05-14T09:59:13.250Z,6.07
2023-05-14T10:01:44.229Z,4.95
2023-05-14T10:04:12.835Z,5.50
2023-05-14T10:06:42.497Z,3.93
2023-05-14T10:09:19.291Z,6.10
2023-05-14T10:11:52.787Z,3.95
2023-05-14T10:14:29.437Z,3.70
2023-05-14T10:17:00.358Z,4.72
2023-05-14T10:19:28.107Z,4.73
2023-05-14T10:22:05.144Z,3.83
2023-05-14T10:24:32.937Z,4.18
2023-05-14T10:27:00.397Z,3.65
2023-05-14T10:29:38.187Z,3.55
2023-05-14T10:32:07.257Z,4.40
2023-05-14T10:34:43.959Z,4.40
2023-05-14T10:37:22.853Z,4.25
2023-05-14T10:40:02.092Z,5.28
2023-05-14T10:42:35.426Z,7.80
2023-05-14T10:45:10.161Z,5.20
2023-05-14T10:47:38.967Z,5.75
2023-05-14T10:50:07.765Z,4.55
2023-05-14T10:52:36.374Z,4.85
2023-05-14T10:55:08.229Z,4.95
2023-05-14T10:57:38.153Z,4.77
2023-05-14T11:00:10.782Z,4.40
2023-05-14T11:02:43.110Z,6.10
2023-05-14T11:05:17.326Z,5.85
2023-05-14T11:07:46.917Z,4.28
2023-05-14T11:10:18.762Z,5.93
2023-05-14T11:12:47.582Z,6.13
2023-05-14T11:15:17.030Z,4.75
2023-05-14T11:17:47.428Z,4.72
2023-05-14T11:20:14.826Z,3.55
2023-05-14T11:22:42.656Z,4.80
2023-05-14T11:25:14.811Z,5.90
2023-05-14T11:27:44.595Z,6.20
2023-05-14T11:30:17.985Z,5.55
2023-05-14T11:32:49.627Z,5.82
2023-05-14T11:35:19.197Z,5.03
2023-05-14T11:37:52.901Z,7.72
2023-05-14T11:40:20.111Z,6.18
2023-05-14T11:42:47.002Z,6.00
2023-05-14T11:45:24.631Z,6.72
2023-05-14T11:47:52.859Z,7.67
2023-05-14T11:50:19.666Z,6.10
2023-05-14T11:52:53.423Z,7.20
2023-05-14T11:55:21.036Z,5.47
2023-05-14T11:57:48.936Z,7.82
2023-05-14T12:00:22.271Z,6.13
2023-05-14T12:02:50.050Z,7.35
2023-05-14T12:05:19.293Z,7.30
2023-05-14T12:07:47.072Z,8.07
2023-05-14T12:10:16.831Z,7.85
2023-05-14T12:12:47.324Z,5.07
2023-05-14T12:15:16.420Z,6.40
2023-05-14T12:17:43.539Z,7.95
2023-05-14T12:20:12.479Z,7.78
2023-05-14T12:22:41.482Z,7.32
2023-05-14T12:25:15.741Z,6.23
2023-05-14T12:27:47.475Z,7.80
2023-05-14T12:32:44.947Z,9.93
2023-05-14T12:35:11.760Z,7.25
2023-05-14T12:37:40.033Z,9.00
2023-05-14T12:40:10.406Z,7.38
2023-05-14T12:42:37.432Z,5.63
2023-05-14T12:45:07.441Z,8.63
2023-05-14T12:47:37.302Z,7.90
2023-05-14T12:50:05.010Z,6.17
2023-05-14T12:55:01.794Z,7.03
2023-05-14T12:57:29.964Z,6.35
2023-05-14T12:59:57.409Z,8.60
2023-05-14T13:02:24.094Z,8.10
2023-05-14T13:04:50.794Z,5.32
2023-05-14T13:07:17.666Z,6.65
2023-05-14T13:09:44.378Z,8.95
2023-05-14T13:12:11.069Z,8.57
2023-05-14T13:14:37.755Z,8.30
2023-05-14T13:17:05.553Z,9.25
2023-05-14T13:19:32.339Z,9.00
2023-05-14T13:21:59.003Z,6.90
2023-05-14T13:24:26.033Z,8.07
2023-05-14T13:26:52.796Z,6.80
2023-05-14T13:29:19.504Z,7.47
2023-05-14T13:31:46.300Z,8.75
2023-05-14T13:34:13.236Z,6.72
2023-05-14T13:36:40.804Z,6.28
2023-05-14T13:39:07.848Z,4.97
2023-05-14T13:41:38.375Z,6.85
2023-05-14T13:44:05.417Z,4.75
2023-05-14T13:46:35.327Z,6.95
2023-05-14T13:49:02.128Z,9.15
2023-05-14T13:51:28.867Z,8.07
2023-05-14T13:53:55.831Z,8.30
2023-05-14T13:56:22.909Z,8.65
2023-05-14T13:58:51.296Z,7.30
2023-05-14T14:01:18.049Z,8.88
2023-05-14T14:03:44.800Z,9.93
2023-05-14T14:06:12.376Z,6.97
2023-05-14T14:08:39.122Z,10.43
2023-05-14T14:11:05.882Z,8.70
2023-05-14T14:13:32.600Z,8.48
2023-05-14T14:16:03.626Z,9.50
2023-05-14T14:18:30.385Z,7.68
2023-05-14T14:20:57.289Z,9.88
2023-05-14T14:23:24.100Z,7.55
2023-05-14T14:25:50.874Z,11.02
2023-05-14T14:28:17.602Z,11.07
2023-05-14T14:30:44.500Z,9.20
2023-05-14T14:33:11.651Z,9.40
2023-05-14T14:35:38.646Z,8.55
2023-05-14T14:38:05.497Z,7.13
2023-05-14T14:40:34.027Z,7.33
2023-05-14T14:43:02.038Z,12.13
2023-05-14T14:45:28.852Z,6.53
2023-05-14T14:48:24.710Z,8.05
2023-05-14T14:50:52.272Z,8.80
2023-05-14T14:53:22.513Z,8.50
2023-05-14T14:55:49.922Z,8.18
2023-05-14T14:58:18.689Z,7.57
2023-05-14T15:00:45.804Z,7.43
2023-05-14T15:03:15.387Z,9.27
2023-05-14T15:05:42.471Z,7.37
2023-05-14T15:08:09.204Z,6.38
2023-05-14T15:10:38.323Z,9.85
2023-05-14T15:13:06.394Z,7.80
2023-05-14T15:15:34.611Z,11.82
2023-05-14T15:18:02.233Z,12.60
2023-05-14T15:20:32.412Z,12.07
2023-05-14T15:23:00.413Z,8.10
2023-05-14T15:25:27.451Z,8.27
2023-05-14T15:27:56.529Z,8.95
2023-05-14T15:30:23.309Z,12.30
2023-05-14T15:32:53.571Z,25.52
2023-05-14T15:35:23.626Z,20.80
2023-05-14T15:37:51.943Z,10.57
2023-05-14T15:40:19.490Z,12.70
2023-05-14T15:42:47.080Z,11.20
2023-05-14T15:45:14.524Z,11.27
2023-05-14T15:47:41.877Z,11.63
2023-05-14T15:50:09.532Z,11.60
2023-05-14T15:52:36.673Z,9.00
2023-05-14T15:55:06.610Z,10.77
2023-05-14T15:57:33.780Z,9.38
2023-05-14T16:00:00.550Z,11.68
2023-05-14T16:02:30.628Z,12.38
2023-05-14T16:04:57.543Z,11.85
2023-05-14T16:07:24.304Z,11.10
2023-05-14T16:09:51.194Z,11.00
2023-05-14T16:12:18.080Z,12.43
2023-05-14T16:14:45.391Z,14.60
2023-05-14T16:17:12.173Z,11.88
2023-05-14T16:19:40.846Z,19.10
2023-05-14T16:22:07.789Z,11.18
2023-05-14T16:24:34.521Z,11.45
2023-05-14T16:27:04.303Z,9.55
2023-05-14T16:29:33.532Z,10.57
2023-05-14T16:32:03.791Z,8.40
2023-05-14T16:34:30.571Z,11.52
2023-05-14T16:36:59.748Z,12.32
2023-05-14T16:39:26.507Z,11.90
2023-05-14T16:41:55.746Z,11.93
2023-05-14T16:44:22.461Z,7.83
2023-05-14T16:46:49.261Z,10.13
2023-05-14T16:49:16.897Z,8.90
2023-05-14T16:51:44.032Z,12.68
2023-05-14T16:54:11.010Z,11.25
2023-05-14T16:56:37.759Z,12.30
2023-05-14T16:59:04.715Z,12.35
2023-05-14T17:01:34.525Z,11.50
2023-05-14T17:04:01.256Z,10.93
2023-05-14T17:06:28.012Z,11.43
2023-05-14T17:08:57.880Z,11.93
2023-05-14T17:11:24.630Z,12.13
2023-05-14T17:13:51.313Z,14.43
2023-05-14T17:16:18.401Z,10.32
2023-05-14T17:18:46.997Z,12.15
2023-05-14T17:21:13.948Z,12.10
2023-05-14T17:23:42.413Z,13.07
2023-05-14T17:26:09.212Z,13.48
2023-05-14T17:28:36.035Z,14.43
2023-05-14T17:31:02.792Z,16.08
2023-05-14T17:33:29.622Z,13.53
2023-05-14T17:35:56.426Z,12.52
2023-05-14T17:38:24.255Z,15.13
2023-05-14T17:40:50.950Z,12.07
2023-05-14T17:43:17.641Z,12.05
2023-05-14T17:45:53.894Z,12.20
2023-05-14T17:48:22.897Z,11.73
2023-05-14T17:50:50.115Z,9.73
2023-05-14T17:53:19.483Z,11.27
2023-05-14T17:55:46.380Z,10.32
2023-05-14T17:58:15.486Z,12.97
2023-05-14T18:00:42.872Z,9.43
2023-05-14T18:03:10.469Z,8.68
2023-05-14T18:05:40.432Z,8.65
2023-05-14T18:08:09.507Z,11.63
2023-05-14T18:10:36.367Z,11.73
2023-05-14T18:13:03.191Z,13.25
2023-05-14T18:15:31.607Z,14.88
2023-05-14T18:17:59.868Z,15.43
2023-05-14T18:20:26.596Z,12.23
2023-05-14T18:22:58.165Z,11.07
2023-05-14T18:25:25.494Z,10.75
2023-05-14T18:27:52.386Z,15.02
2023-05-14T18:30:19.180Z,12.55
2023-05-14T18:32:46.749Z,9.20
2023-05-14T18:35:14.076Z,12.80
2023-05-14T18:37:41.131Z,9.63
2023-05-14T18:40:08.795Z,9.20
2023-05-14T18:42:35.625Z,10.98
2023-05-14T18:45:02.737Z,10.35
2023-05-14T18:47:30.534Z,9.60
2023-05-14T18:50:02.264Z,10.85
2023-05-14T18:52:30.657Z,11.57
2023-05-14T18:54:57.434Z,8.95
2023-05-14T18:57:24.221Z,9.25
2023-05-14T18:59:54.929Z,11.67
2023-05-14T19:02:21.812Z,11.43
2023-05-14T19:04:53.023Z,9.30
2023-05-14T19:07:22.009Z,10.25
2023-05-14T19:09:49.133Z,10.95
2023-05-14T19:12:16.223Z,11.67
2023-05-14T19:14:43.233Z,14.45
2023-05-14T19:17:10.207Z,11.40
2023-05-14T19:19:37.846Z,16.63
2023-05-14T19:22:04.776Z,42.85
2023-05-14T19:24:31.446Z,15.90
2023-05-14T19:27:01.266Z,13.25
2023-05-14T19:29:27.980Z,19.90
2023-05-14T19:31:54.751Z,13.88
2023-05-14T19:34:21.669Z,15.45
2023-05-14T19:36:48.460Z,27.70
2023-05-14T19:39:15.170Z,11.65
2023-05-14T19:41:41.932Z,10.23
2023-05-14T19:44:08.633Z,18.40
2023-05-14T19:46:37.711Z,10.45
2023-05-14T19:49:04.522Z,11.33
2023-05-14T19:51:31.592Z,13.60
2023-05-14T19:54:01.477Z,11.93
2023-05-14T19:56:28.313Z,12.85
2023-05-14T19:58:58.176Z,10.25
2023-05-14T20:01:27.550Z,8.43
2023-05-14T20:03:54.304Z,9.35
2023-05-14T20:06:21.071Z,9.98
2023-05-14T20:08:47.798Z,10.05
2023-05-14T20:11:18.046Z,8.70
2023-05-14T20:13:48.175Z,9.90
2023-05-14T20:16:16.887Z,10.77
2023-05-14T20:18:44.202Z,9.82
2023-05-14T20:21:11.176Z,13.23
2023-05-14T20:23:38.080Z,12.80
2023-05-14T20:26:07.003Z,10.50
2023-05-14T20:28:35.408Z,9.45
2023-05-14T20:31:04.056Z,12.65
2023-05-14T20:33:30.884Z,11.88
2023-05-14T20:36:00.065Z,10.55
2023-05-14T20:38:29.382Z,7.30
2023-05-14T20:40:56.292Z,9.95
2023-05-14T20:43:23.282Z,9.45
2023-05-14T20:45:50.034Z,9.32
2023-05-14T20:48:17.675Z,10.50
2023-05-14T20:50:44.744Z,11.03
2023-05-14T20:53:11.512Z,9.80
2023-05-14T20:55:40.825Z,11.15
2023-05-14T20:58:07.696Z,11.25
2023-05-14T21:00:34.553Z,12.13
2023-05-14T21:03:01.385Z,10.40
2023-05-14T21:05:28.293Z,11.00
2023-05-14T21:07:55.049Z,11.48
2023-05-14T21:10:21.818Z,10.77
2023-05-14T21:12:48.553Z,11.25
2023-05-14T21:15:18.352Z,13.67
2023-05-14T21:17:45.161Z,12.38
2023-05-14T21:20:13.494Z,10.27
2023-05-14T21:22:40.221Z,9.98
2023-05-14T21:25:07.219Z,11.75
2023-05-14T21:27:34.104Z,9.43
2023-05-14T21:30:00.781Z,11.95
2023-05-14T21:32:30.015Z,15.30
2023-05-14T21:34:58.078Z,11.27
2023-05-14T21:37:27.833Z,12.15
2023-05-14T21:39:54.597Z,12.13
2023-05-14T21:42:21.533Z,11.00
2023-05-14T21:44:48.200Z,10.48
2023-05-14T21:47:16.217Z,9.95
2023-05-14T21:49:43.396Z,9.23
2023-05-14T21:52:11.738Z,9.20
2023-05-14T21:54:38.413Z,11.63
2023-05-14T21:57:05.412Z,10.75
2023-05-14T21:59:33.885Z,10.27
2023-05-14T22:04:30.401Z,11.73
2023-05-14T22:06:59.017Z,9.15
2023-05-14T22:09:25.991Z,10.30
2023-05-14T22:11:52.804Z,10.95
2023-05-14T22:14:19.566Z,11.57
2023-05-14T22:16:46.376Z,9.33
2023-05-14T22:19:13.293Z,9.63
2023-05-14T22:21:40.166Z,8.77
2023-05-14T22:24:07.573Z,12.88
2023-05-14T22:26:35.170Z,7.85
2023-05-14T22:29:01.925Z,8.67
2023-05-14T22:31:30.120Z,9.32
2023-05-14T22:33:56.892Z,10.00
2023-05-14T22:36:23.718Z,11.23
2023-05-14T22:38:50.482Z,7.88
2023-05-14T22:41:20.167Z,6.87
2023-05-14T22:43:51.374Z,7.07
2023-05-14T22:46:19.358Z,9.88
2023-05-14T22:48:51.793Z,11.32
2023-05-14T22:51:18.475Z,8.10
2023-05-14T22:53:45.638Z,12.33
2023-05-14T22:56:12.466Z,9.55
2023-05-14T22:58:39.174Z,9.40
2023-05-14T23:01:06.001Z,10.65
2023-05-14T23:03:32.758Z,9.10
2023-05-14T23:05:59.584Z,9.60
2023-05-14T23:08:26.260Z,10.30
2023-05-14T23:10:53.066Z,10.57
2023-05-14T23:13:21.019Z,11.43
2023-05-14T23:15:48.176Z,11.90
2023-05-14T23:18:14.969Z,8.93
2023-05-14T23:20:41.776Z,12.18
2023-05-14T23:23:08.499Z,11.68
2023-05-14T23:25:35.312Z,9.88
2023-05-14T23:28:02.048Z,9.60
2023-05-14T23:30:28.792Z,10.13
2023-05-14T23:32:55.583Z,9.20
2023-05-14T23:35:22.730Z,10.80
2023-05-14T23:37:51.136Z,10.82
2023-05-14T23:40:18.461Z,10.25
2023-05-14T23:42:45.287Z,9.57
2023-05-14T23:45:13.547Z,9.00
2023-05-14T23:47:43.734Z,10.38
2023-05-14T23:50:10.684Z,14.90
2023-05-14T23:52:42.549Z,8.70
2023-05-14T23:55:09.641Z,9.20
2023-05-14T23:57:36.394Z,11.32
